createdAt,value
2022-11-04T00:00:50.503Z,1.55
2022-11-04T00:03:17.540Z,1.27
2022-11-04T00:05:44.563Z,1.40
2022-11-04T00:08:26.376Z,0.95
2022-11-04T00:11:20.270Z,1.92
2022-11-04T00:13:48.055Z,1.50
2022-11-04T00:16:34.441Z,1.10
2022-11-04T00:19:01.951Z,2.60
2022-11-04T00:21:47.548Z,1.17
2022-11-04T00:24:50.236Z,1.15
2022-11-04T00:27:39.082Z,1.35
2022-11-04T00:30:09.758Z,1.25
2022-11-04T00:32:55.711Z,2.00
2022-11-04T00:35:23.098Z,1.58
2022-11-04T00:37:50.192Z,1.88
2022-11-04T00:40:17.379Z,1.90
2022-11-04T00:42:46.437Z,2.13
2022-11-04T00:45:13.317Z,2.15
2022-11-04T00:47:42.006Z,2.10
2022-11-04T00:50:09.378Z,2.10
2022-11-04T00:52:36.207Z,2.05
2022-11-04T00:55:03.788Z,2.22
2022-11-04T00:57:30.748Z,2.20
2022-11-04T00:59:57.665Z,1.98
2022-11-04T01:02:26.243Z,1.70
2022-11-04T01:04:53.560Z,2.10
2022-11-04T01:07:20.474Z,2.05
2022-11-04T01:09:49.175Z,3.25
2022-11-04T01:12:16.970Z,1.70
2022-11-04T01:14:43.754Z,2.42
2022-11-04T01:17:10.720Z,2.55
2022-11-04T01:19:37.756Z,2.33
2022-11-04T01:22:04.771Z,2.90
2022-11-04T01:24:32.638Z,2.00
2022-11-04T01:26:59.319Z,2.65
2022-11-04T01:29:26.428Z,2.53
2022-11-04T01:31:53.090Z,1.95
2022-11-04T01:34:20.043Z,3.80
2022-11-04T01:36:47.089Z,2.03
2022-11-04T01:39:14.162Z,1.90
2022-11-04T01:41:41.305Z,3.95
2022-11-04T01:44:42.311Z,1.80
2022-11-04T01:47:24.211Z,2.22
2022-11-04T01:50:05.785Z,2.60
2022-11-04T01:52:55.112Z,3.20
2022-11-04T01:55:29.899Z,2.53
2022-11-04T01:58:01.095Z,2.83
2022-11-04T02:00:28.026Z,3.15
2022-11-04T02:03:16.853Z,2.00
2022-11-04T02:05:44.796Z,2.53
2022-11-04T02:08:14.091Z,2.10
2022-11-04T02:10:42.984Z,3.63
2022-11-04T02:13:10.244Z,2.60
2022-11-04T02:15:57.111Z,2.63
2022-11-04T02:18:53.214Z,2.55
2022-11-04T02:21:45.119Z,2.45
2022-11-04T02:24:49.844Z,2.70
2022-11-04T02:27:47.597Z,3.38
2022-11-04T02:30:18.886Z,3.20
2022-11-04T02:33:00.670Z,3.50
2022-11-04T02:35:49.570Z,3.58
2022-11-04T02:38:35.911Z,4.22
2022-11-04T02:41:17.816Z,3.65
2022-11-04T02:43:57.153Z,4.10
2022-11-04T02:46:36.039Z,4.22
2022-11-04T02:49:13.238Z,5.20
2022-11-04T02:51:43.407Z,4.47
2022-11-04T02:54:25.803Z,4.32
2022-11-04T02:56:56.677Z,4.65
2022-11-04T02:59:36.404Z,4.38
2022-11-04T03:02:07.771Z,4.72
2022-11-04T03:04:41.864Z,5.00
2022-11-04T03:09:49.991Z,4.32
2022-11-04T03:12:21.878Z,4.80
2022-11-04T03:14:56.070Z,4.95
2022-11-04T03:17:39.586Z,3.50
2022-11-04T03:20:11.987Z,3.80
2022-11-04T03:22:39.085Z,3.75
2022-11-04T03:25:08.425Z,4.15
2022-11-04T03:28:03.213Z,4.65
2022-11-04T03:30:38.444Z,3.85
2022-11-04T03:33:23.738Z,5.07
2022-11-04T03:35:50.702Z,3.90
2022-11-04T03:38:17.788Z,3.63
2022-11-04T03:40:44.800Z,4.03
2022-11-04T03:43:19.390Z,3.22
2022-11-04T03:45:46.411Z,4.10
2022-11-04T03:48:13.368Z,3.03
2022-11-04T03:50:43.090Z,3.45
2022-11-04T03:53:13.511Z,4.35
2022-11-04T03:56:20.421Z,4.28
2022-11-04T03:59:11.969Z,3.13
2022-11-04T04:01:41.495Z,2.70
2022-11-04T04:04:22.941Z,3.33
2022-11-04T04:06:52.658Z,3.42
2022-11-04T04:09:24.102Z,2.75
2022-11-04T04:12:10.084Z,2.90
2022-11-04T04:14:44.956Z,3.05
2022-11-04T04:17:20.494Z,2.83
2022-11-04T04:20:15.907Z,3.53
2022-11-04T04:22:52.382Z,2.72
2022-11-04T04:25:40.319Z,3.00
2022-11-04T04:28:09.145Z,2.50
2022-11-04T04:30:36.769Z,2.43
2022-11-04T04:33:11.530Z,2.60
2022-11-04T04:35:44.315Z,2.40
2022-11-04T04:38:41.625Z,2.42
2022-11-04T04:41:48.041Z,4.00
2022-11-04T04:44:53.620Z,2.35
2022-11-04T04:47:24.647Z,2.53
2022-11-04T04:50:00.845Z,3.42
2022-11-04T04:52:49.684Z,2.72
2022-11-04T04:55:17.454Z,2.17
2022-11-04T04:57:44.511Z,3.67
2022-11-04T05:00:15.234Z,2.25
2022-11-04T05:02:42.711Z,3.38
2022-11-04T05:05:12.925Z,2.42
2022-11-04T05:07:39.980Z,4.03
2022-11-04T05:10:08.994Z,4.03
2022-11-04T05:12:55.147Z,3.13
2022-11-04T05:15:21.895Z,3.42
2022-11-04T05:17:53.146Z,2.45
2022-11-04T05:20:19.989Z,2.78
2022-11-04T05:22:46.691Z,4.72
2022-11-04T05:25:13.805Z,2.30
2022-11-04T05:27:40.753Z,2.35
2022-11-04T05:30:08.181Z,3.35
2022-11-04T05:32:34.956Z,1.88
2022-11-04T05:35:02.030Z,2.38
2022-11-04T05:37:29.196Z,2.65
2022-11-04T05:39:55.996Z,2.25
2022-11-04T05:42:23.042Z,2.25
2022-11-04T05:44:50.101Z,2.30
2022-11-04T05:47:17.112Z,1.85
2022-11-04T05:49:43.805Z,2.90
2022-11-04T05:52:10.833Z,2.03
2022-11-04T05:54:39.250Z,1.80
2022-11-04T05:57:06.151Z,2.13
2022-11-04T05:59:33.182Z,2.13
2022-11-04T06:01:59.889Z,1.80
2022-11-04T06:04:26.913Z,2.30
2022-11-04T06:06:53.970Z,2.42
2022-11-04T06:09:21.023Z,2.67
2022-11-04T06:11:48.004Z,2.83
2022-11-04T06:14:18.575Z,2.75
2022-11-04T06:16:47.011Z,2.55
2022-11-04T06:19:16.222Z,3.80
2022-11-04T06:21:43.292Z,2.33
2022-11-04T06:24:12.507Z,2.22
2022-11-04T06:26:39.629Z,2.65
2022-11-04T06:29:06.448Z,2.60
2022-11-04T06:31:33.112Z,2.40
2022-11-04T06:34:00.093Z,2.47
2022-11-04T06:36:27.204Z,3.20
2022-11-04T06:38:57.520Z,2.15
2022-11-04T06:41:26.968Z,2.20
2022-11-04T06:43:54.003Z,2.53
2022-11-04T06:46:42.417Z,2.50
2022-11-04T06:49:14.249Z,2.38
2022-11-04T06:51:42.225Z,2.95
2022-11-04T06:54:09.367Z,4.10
2022-11-04T06:56:36.522Z,2.17
2022-11-04T06:59:03.528Z,2.63
2022-11-04T07:01:32.996Z,2.78
2022-11-04T07:04:01.091Z,2.58
2022-11-04T07:06:31.442Z,2.30
2022-11-04T07:09:00.459Z,5.03
2022-11-04T07:11:32.606Z,3.30
2022-11-04T07:14:01.001Z,2.63
2022-11-04T07:16:28.965Z,2.22
2022-11-04T07:18:56.146Z,2.88
2022-11-04T07:21:24.469Z,3.22
2022-11-04T07:23:53.449Z,4.10
2022-11-04T07:26:21.671Z,3.07
2022-11-04T07:28:48.661Z,3.40
2022-11-04T07:31:17.960Z,2.90
2022-11-04T07:33:49.677Z,4.00
2022-11-04T07:36:20.201Z,2.60
2022-11-04T07:38:47.297Z,3.88
2022-11-04T07:41:14.782Z,3.53
2022-11-04T07:43:41.640Z,4.15
2022-11-04T07:46:11.964Z,5.88
2022-11-04T07:48:39.317Z,4.43
2022-11-04T07:51:08.440Z,4.22
2022-11-04T07:53:35.625Z,4.32
2022-11-04T07:56:06.924Z,5.30
2022-11-04T07:58:34.594Z,3.85
2022-11-04T08:01:03.595Z,3.50
2022-11-04T08:03:30.305Z,3.23
2022-11-04T08:06:02.212Z,3.75
2022-11-04T08:08:29.594Z,3.55
2022-11-04T08:11:00.285Z,3.47
2022-11-04T08:13:32.887Z,2.67
2022-11-04T08:16:05.709Z,3.05
2022-11-04T08:18:33.795Z,2.67
2022-11-04T08:21:02.367Z,3.35
2022-11-04T08:23:29.036Z,3.83
2022-11-04T08:25:56.916Z,3.47
2022-11-04T08:28:24.535Z,2.80
2022-11-04T08:31:00.239Z,4.07
2022-11-04T08:33:29.110Z,3.28
2022-11-04T08:35:59.274Z,3.75
2022-11-04T08:38:25.996Z,3.53
2022-11-04T08:40:58.618Z,4.30
2022-11-04T08:43:26.771Z,4.53
2022-11-04T08:45:53.938Z,4.20
2022-11-04T08:48:20.758Z,3.50
2022-11-04T08:50:53.056Z,4.60
2022-11-04T08:53:20.067Z,3.75
2022-11-04T08:55:46.759Z,4.28
2022-11-04T08:58:13.452Z,4.55
2022-11-04T09:00:40.412Z,4.43
2022-11-04T09:03:08.347Z,3.95
2022-11-04T09:05:44.651Z,3.42
2022-11-04T09:08:15.607Z,3.90
2022-11-04T09:10:47.124Z,3.90
2022-11-04T09:13:15.601Z,3.42
2022-11-04T09:15:42.952Z,3.55
2022-11-04T09:18:09.602Z,3.58
2022-11-04T09:20:39.563Z,2.72
2022-11-04T09:23:06.962Z,3.20
2022-11-04T09:25:35.917Z,2.80
2022-11-04T09:28:03.107Z,3.42
2022-11-04T09:30:29.820Z,2.63
2022-11-04T09:32:56.444Z,3.38
2022-11-04T09:35:23.078Z,3.38
2022-11-04T09:37:50.645Z,3.80
2022-11-04T09:40:21.509Z,3.55
2022-11-04T09:43:03.091Z,4.93
2022-11-04T09:45:32.115Z,3.28
2022-11-04T09:48:03.230Z,4.25
2022-11-04T09:50:36.961Z,4.05
2022-11-04T09:53:09.621Z,3.35
2022-11-04T09:55:46.771Z,3.58
2022-11-04T09:58:14.857Z,3.92
2022-11-04T10:00:48.859Z,2.40
2022-11-04T10:03:39.718Z,3.53
2022-11-04T10:06:18.407Z,3.95
2022-11-04T10:09:02.262Z,3.55
2022-11-04T10:11:56.103Z,4.18
2022-11-04T10:14:44.924Z,4.22
2022-11-04T10:17:27.450Z,4.50
2022-11-04T10:20:04.009Z,4.85
2022-11-04T10:23:11.170Z,5.47
2022-11-04T10:25:50.619Z,6.03
2022-11-04T10:28:24.072Z,5.38
2022-11-04T10:30:52.436Z,4.35
2022-11-04T10:33:28.265Z,4.50
2022-11-04T10:35:59.889Z,4.00
2022-11-04T10:38:38.409Z,4.60
2022-11-04T10:41:20.167Z,4.53
2022-11-04T10:43:47.793Z,4.18
2022-11-04T10:46:26.810Z,5.75
2022-11-04T10:49:02.796Z,4.82
2022-11-04T10:51:29.521Z,8.18
2022-11-04T10:54:01.262Z,5.00
2022-11-04T10:56:31.034Z,6.03
2022-11-04T11:01:33.982Z,5.45
2022-11-04T11:04:06.238Z,6.53
2022-11-04T11:06:37.038Z,6.55
2022-11-04T11:09:13.848Z,5.85
2022-11-04T11:11:50.243Z,5.47
2022-11-04T11:14:32.561Z,5.45
2022-11-04T11:17:22.504Z,5.85
2022-11-04T11:20:00.620Z,5.18
2022-11-04T11:22:31.659Z,5.35
2022-11-04T11:25:26.086Z,4.90
2022-11-04T11:27:55.876Z,5.68
2022-11-04T11:33:15.376Z,5.85
2022-11-04T11:35:49.991Z,5.60
2022-11-04T11:38:30.194Z,4.05
2022-11-04T11:41:24.818Z,5.55
2022-11-04T11:43:55.086Z,5.80
2022-11-04T11:46:28.359Z,5.88
2022-11-04T11:49:03.112Z,6.38
2022-11-04T11:51:39.721Z,7.78
2022-11-04T11:54:33.749Z,7.00
2022-11-04T11:57:14.620Z,8.57
2022-11-04T12:03:26.918Z,11.20
2022-11-04T12:06:20.326Z,13.20
2022-11-04T12:11:59.683Z,12.00
2022-11-04T12:14:49.046Z,11.73
2022-11-04T12:17:40.956Z,11.95
2022-11-04T12:20:18.819Z,14.38
2022-11-04T12:23:21.663Z,12.00
2022-11-04T12:25:54.457Z,11.93
2022-11-04T12:28:28.701Z,11.15
2022-11-04T12:31:02.628Z,10.80
2022-11-04T12:33:32.309Z,9.45
2022-11-04T12:36:04.533Z,15.23
2022-11-04T12:38:37.399Z,12.38
2022-11-04T12:41:47.157Z,11.93
2022-11-04T12:44:43.771Z,9.98
2022-11-04T12:47:34.848Z,9.85
2022-11-04T12:50:15.774Z,9.25
2022-11-04T12:52:42.382Z,9.48
2022-11-04T12:55:16.279Z,8.32
2022-11-04T12:57:56.298Z,9.35
2022-11-04T13:00:28.286Z,9.63
2022-11-04T13:03:05.259Z,12.48
2022-11-04T13:05:47.473Z,10.90
2022-11-04T13:08:30.830Z,12.13
2022-11-04T13:11:23.145Z,8.95
2022-11-04T13:14:11.553Z,8.90
2022-11-04T13:16:43.954Z,8.88
2022-11-04T13:19:23.801Z,7.35
2022-11-04T13:24:31.794Z,6.90
2022-11-04T13:27:04.741Z,7.63
2022-11-04T13:29:34.588Z,8.55
2022-11-04T13:32:07.610Z,9.77
2022-11-04T13:34:52.964Z,9.10
2022-11-04T13:37:25.584Z,9.02
2022-11-04T13:40:04.034Z,9.90
2022-11-04T13:43:22.073Z,10.65
2022-11-04T13:45:52.632Z,11.00
2022-11-04T13:48:24.298Z,11.13
2022-11-04T13:51:02.527Z,12.75
2022-11-04T13:53:48.342Z,12.38
2022-11-04T13:56:34.501Z,12.57
2022-11-04T13:59:22.168Z,11.50
2022-11-04T14:01:49.141Z,10.55
2022-11-04T14:04:30.181Z,10.18
2022-11-04T14:07:01.821Z,11.80
2022-11-04T14:09:43.904Z,11.35
2022-11-04T14:12:10.503Z,16.65
2022-11-04T14:14:46.430Z,11.05
2022-11-04T14:17:35.243Z,10.85
2022-11-04T14:20:07.738Z,11.70
2022-11-04T14:22:43.542Z,12.32
2022-11-04T14:25:32.322Z,10.20
2022-11-04T14:28:03.611Z,11.10
2022-11-04T14:30:41.566Z,9.23
2022-11-04T14:33:33.432Z,1.80
2022-11-04T14:36:22.003Z,1.10
2022-11-04T14:39:09.882Z,0.50
2022-11-04T14:41:39.511Z,1.20
2022-11-04T14:44:40.960Z,0.60
2022-11-04T14:47:07.552Z,0.77
2022-11-04T14:49:50.797Z,0.57
2022-11-04T14:52:42.470Z,0.30
2022-11-04T14:55:16.571Z,0.60
2022-11-04T14:57:45.297Z,0.45
2022-11-04T15:00:22.336Z,2.08
2022-11-04T15:06:09.793Z,0.60
2022-11-04T15:08:42.447Z,1.80
2022-11-04T15:11:17.527Z,0.70
2022-11-04T15:13:51.598Z,0.95
2022-11-04T15:16:27.366Z,1.02
2022-11-04T15:18:55.996Z,0.60
2022-11-04T15:21:22.819Z,0.80
2022-11-04T15:23:51.948Z,0.77
2022-11-04T15:26:30.360Z,0.73
2022-11-04T15:29:00.519Z,0.50
2022-11-04T15:34:01.087Z,1.10
2022-11-04T15:36:40.009Z,0.77
2022-11-04T15:39:26.499Z,3.90
2022-11-04T15:42:16.959Z,0.80
2022-11-04T15:44:50.694Z,1.10
2022-11-04T15:47:23.016Z,1.15
2022-11-04T15:49:52.426Z,1.45
2022-11-04T15:52:26.505Z,1.45
2022-11-04T15:54:55.600Z,1.35
2022-11-04T15:57:32.002Z,1.20
2022-11-04T16:05:16.647Z,2.17
2022-11-04T16:07:48.508Z,1.75
2022-11-04T16:10:37.657Z,1.33
2022-11-04T16:13:16.693Z,2.15
2022-11-04T16:19:34.563Z,1.73
2022-11-04T16:22:34.383Z,1.38
2022-11-04T16:27:45.750Z,1.02
2022-11-04T16:31:10.084Z,1.23
2022-11-04T16:33:39.920Z,2.65
2022-11-04T16:39:30.567Z,1.88
2022-11-04T16:42:01.600Z,1.52
2022-11-04T16:44:28.880Z,1.10
2022-11-04T16:46:57.061Z,1.60
2022-11-04T16:49:23.798Z,1.10
2022-11-04T16:52:03.040Z,2.13
2022-11-04T16:54:31.148Z,1.75
2022-11-04T16:57:02.952Z,1.80
2022-11-04T16:59:30.847Z,1.50
2022-11-04T17:01:59.127Z,1.80
2022-11-04T17:04:31.901Z,2.20
2022-11-04T17:06:58.586Z,1.60
2022-11-04T17:09:30.604Z,2.05
2022-11-04T17:12:00.469Z,1.98
2022-11-04T17:16:59.894Z,1.50
2022-11-04T17:19:31.867Z,2.45
2022-11-04T17:22:05.865Z,2.58
2022-11-04T17:24:37.435Z,3.63
2022-11-04T17:27:04.601Z,2.65
2022-11-04T17:29:37.732Z,4.80
2022-11-04T17:32:06.752Z,3.15
2022-11-04T17:34:37.858Z,4.03
2022-11-04T17:37:17.242Z,3.10
2022-11-04T17:39:44.279Z,4.22
2022-11-04T17:42:32.717Z,2.38
2022-11-04T17:45:01.852Z,3.83
2022-11-04T17:47:29.563Z,3.13
2022-11-04T17:50:08.138Z,3.40
2022-11-04T17:52:52.555Z,3.50
2022-11-04T17:55:27.477Z,3.97
2022-11-04T17:57:56.090Z,5.10
2022-11-04T18:00:29.410Z,3.90
2022-11-04T18:03:02.240Z,4.78
2022-11-04T18:05:36.257Z,4.15
2022-11-04T18:08:03.773Z,3.72
2022-11-04T18:10:34.851Z,4.65
2022-11-04T18:13:09.855Z,4.03
2022-11-04T18:15:42.749Z,3.00
2022-11-04T18:18:09.406Z,3.50
2022-11-04T18:20:38.220Z,3.80
2022-11-04T18:23:07.333Z,3.88
2022-11-04T18:25:34.383Z,4.55
2022-11-04T18:28:03.031Z,3.97
2022-11-04T18:30:40.655Z,4.68
2022-11-04T18:33:10.997Z,5.38
2022-11-04T18:35:38.095Z,5.43
2022-11-04T18:38:06.863Z,6.30
2022-11-04T18:40:35.986Z,6.80
2022-11-04T18:43:07.647Z,8.90
2022-11-04T18:45:41.395Z,8.00
2022-11-04T18:48:08.394Z,10.75
2022-11-04T18:50:36.911Z,10.05
2022-11-04T18:53:09.852Z,8.25
2022-11-04T18:55:39.945Z,7.25
2022-11-04T19:00:39.969Z,6.88
2022-11-04T19:03:12.696Z,6.43
2022-11-04T19:05:44.480Z,7.13
2022-11-04T19:08:13.227Z,7.82
2022-11-04T19:11:01.149Z,7.97
2022-11-04T19:13:30.593Z,7.55
2022-11-04T19:16:07.128Z,6.32
2022-11-04T19:18:36.441Z,6.72
2022-11-04T19:21:06.840Z,5.93
2022-11-04T19:23:34.387Z,5.40
2022-11-04T19:26:14.964Z,5.82
2022-11-04T19:28:48.613Z,5.65
2022-11-04T19:31:24.363Z,6.20
2022-11-04T19:33:52.795Z,6.53
2022-11-04T19:36:29.682Z,6.00
2022-11-04T19:38:57.803Z,7.97
2022-11-04T19:41:48.951Z,6.15
2022-11-04T19:44:24.113Z,7.65
2022-11-04T19:46:53.151Z,6.97
2022-11-04T19:49:21.152Z,6.10
2022-11-04T19:51:49.040Z,7.72
2022-11-04T19:54:15.949Z,7.47
2022-11-04T19:56:45.909Z,7.68
2022-11-04T19:59:12.938Z,8.93
2022-11-04T20:01:51.097Z,7.93
2022-11-04T20:04:39.821Z,6.78
2022-11-04T20:07:10.519Z,8.18
2022-11-04T20:09:45.353Z,7.65
2022-11-04T20:12:41.476Z,9.63
2022-11-04T20:15:09.509Z,8.48
2022-11-04T20:17:49.530Z,8.77
2022-11-04T20:20:19.387Z,9.38
2022-11-04T20:27:44.835Z,10.32
2022-11-04T20:30:24.901Z,12.70
2022-11-04T20:32:51.623Z,11.90
2022-11-04T20:35:24.680Z,11.48
2022-11-04T20:37:51.378Z,11.60
2022-11-04T20:40:18.452Z,12.00
2022-11-04T20:42:47.743Z,10.80
2022-11-04T20:45:16.399Z,10.55
2022-11-04T20:47:48.612Z,10.50
2022-11-04T20:50:16.482Z,10.30
2022-11-04T20:52:49.372Z,9.00
2022-11-04T20:55:23.025Z,8.43
2022-11-04T20:57:51.044Z,9.65
2022-11-04T21:00:24.250Z,10.00
2022-11-04T21:02:51.311Z,9.68
2022-11-04T21:05:19.951Z,10.02
2022-11-04T21:07:48.628Z,8.35
2022-11-04T21:10:27.552Z,8.98
2022-11-04T21:12:55.437Z,5.83
2022-11-04T21:15:42.295Z,7.60
2022-11-04T21:18:12.964Z,7.57
2022-11-04T21:20:42.195Z,5.85
2022-11-04T21:23:12.628Z,3.30
2022-11-04T21:25:45.960Z,2.70
2022-11-04T21:28:13.807Z,2.42
2022-11-04T21:30:48.719Z,1.60
2022-11-04T21:33:21.825Z,1.77
2022-11-04T21:35:51.707Z,2.05
2022-11-04T21:41:06.140Z,1.92
2022-11-04T21:43:32.903Z,2.47
2022-11-04T21:46:14.839Z,1.33
2022-11-04T21:48:50.206Z,1.80
2022-11-04T21:51:23.313Z,3.70
2022-11-04T21:53:50.311Z,1.95
2022-11-04T21:56:23.382Z,3.20
2022-11-04T21:58:52.860Z,3.00
2022-11-04T22:01:27.233Z,2.97
2022-11-04T22:04:01.975Z,3.15
2022-11-04T22:06:34.590Z,3.80
2022-11-04T22:09:06.670Z,2.80
2022-11-04T22:11:39.696Z,3.65
2022-11-04T22:14:12.815Z,3.33
2022-11-04T22:16:40.791Z,4.25
2022-11-04T22:19:10.287Z,4.15
2022-11-04T22:21:51.212Z,3.00
2022-11-04T22:24:18.497Z,3.42
2022-11-04T22:26:46.028Z,3.90
2022-11-04T22:29:18.471Z,2.53
2022-11-04T22:31:46.354Z,4.00
2022-11-04T22:34:13.395Z,3.13
2022-11-04T22:36:40.351Z,2.75
2022-11-04T22:39:16.338Z,2.08
2022-11-04T22:41:46.079Z,1.98
2022-11-04T22:44:13.891Z,2.20
2022-11-04T22:46:41.956Z,2.20
2022-11-04T22:49:08.831Z,2.05
2022-11-04T22:51:36.656Z,2.22
2022-11-04T22:54:08.133Z,2.00
2022-11-04T22:56:35.533Z,2.30
2022-11-04T22:59:02.670Z,1.85
2022-11-04T23:01:31.545Z,1.83
2022-11-04T23:04:04.546Z,1.90
2022-11-04T23:06:33.300Z,2.45
2022-11-04T23:09:01.418Z,1.90
2022-11-04T23:11:49.799Z,2.40
2022-11-04T23:14:40.244Z,2.03
2022-11-04T23:17:39.579Z,2.58
2022-11-04T23:20:36.277Z,2.30
2022-11-04T23:23:22.153Z,2.85
2022-11-04T23:25:50.059Z,2.95
2022-11-04T23:28:36.694Z,3.33
2022-11-04T23:31:09.484Z,3.78
2022-11-04T23:34:01.348Z,3.75
2022-11-04T23:36:46.855Z,3.55
2022-11-04T23:39:15.731Z,4.13
2022-11-04T23:42:01.953Z,4.00
2022-11-04T23:44:50.167Z,4.00
2022-11-04T23:47:35.605Z,4.80
2022-11-04T23:50:22.359Z,5.20
2022-11-04T23:53:10.142Z,5.60
2022-11-04T23:55:57.709Z,6.43
2022-11-04T23:58:55.127Z,5.72
